Time;durP1;ratioP1;P1;durP2;ratioP2;P2;SDS_P1;SDS_P2;PMS_P1;PMS_P2;Temp;Humidity;BMP_temperature;BMP_pressure;BME280_temperature;BME280_humidity;BME280_pressure;Samples;Min_cycle;Max_cycle;Signal;HPM_P1;HPM_P2
2022/07/14 00:02:23;;;;;;;3.50;1.38;;;;;;;20.85;45.98;96515.63;10327851;28;98070;-75
2022/07/14 00:07:26;;;;;;;3.60;1.58;;;;;;;20.86;46.20;96516.44;10315013;28;96919;-76
2022/07/14 00:12:28;;;;;;;2.15;1.50;;;;;;;20.78;46.85;96503.41;10299467;28;97031;-75
2022/07/14 00:17:33;;;;;;;3.05;1.60;;;;;;;20.62;46.90;96501.97;10300895;28;97679;-75
2022/07/14 00:22:36;;;;;;;1.98;1.67;;;;;;;20.50;47.22;96502.56;10327354;28;97816;-75
2022/07/14 00:27:39;;;;;;;3.55;1.75;;;;;;;20.41;48.01;96501.13;10327321;28;97276;-75
2022/07/14 00:32:43;;;;;;;3.10;2.08;;;;;;;20.17;48.90;96497.22;10327002;28;97264;-75
2022/07/14 00:37:46;;;;;;;5.13;1.90;;;;;;;19.99;49.42;96500.44;10331740;28;98133;-75
2022/07/14 00:42:50;;;;;;;2.53;1.70;;;;;;;19.77;50.50;96499.75;10303935;28;96962;-75
2022/07/14 00:47:54;;;;;;;4.13;1.70;;;;;;;19.79;49.05;96497.72;10308984;28;96986;-76
2022/07/14 00:52:57;;;;;;;2.35;1.75;;;;;;;19.66;49.73;96495.81;10322286;28;96842;-75
2022/07/14 00:58:00;;;;;;;2.88;1.70;;;;;;;19.62;49.96;96500.72;10324529;28;97479;-75
2022/07/14 01:03:05;;;;;;;1.75;1.65;;;;;;;19.50;49.75;96502.28;10308962;28;97486;-75
2022/07/14 01:08:09;;;;;;;3.55;2.00;;;;;;;19.32;50.91;96512.63;10324929;28;98569;-75
2022/07/14 01:13:12;;;;;;;3.30;2.10;;;;;;;19.25;51.43;96513.38;10317852;28;98187;-75
2022/07/14 01:18:16;;;;;;;2.42;1.83;;;;;;;19.28;51.49;96508.72;10309480;28;96780;-75
2022/07/14 01:23:20;;;;;;;2.75;1.88;;;;;;;19.23;51.94;96512.78;10311818;28;96804;-75
2022/07/14 01:28:23;;;;;;;2.47;1.92;;;;;;;19.10;52.26;96525.13;10317890;28;97950;-75
2022/07/14 01:33:26;;;;;;;2.20;2.00;;;;;;;19.10;52.91;96515.34;10326068;28;96819;-75
2022/07/14 01:38:31;;;;;;;4.43;2.35;;;;;;;19.19;53.09;96505.41;10326111;28;96847;-75
2022/07/14 01:43:35;;;;;;;2.58;1.95;;;;;;;19.11;52.74;96514.34;10325456;28;97393;-75
2022/07/14 01:48:38;;;;;;;3.25;1.90;;;;;;;19.18;51.85;96512.53;10331721;28;97090;-75
2022/07/14 01:53:42;;;;;;;2.00;1.70;;;;;;;19.24;51.26;96514.41;10339426;28;96788;-75
2022/07/14 01:58:45;;;;;;;4.63;1.95;;;;;;;19.45;50.67;96520.63;10335949;28;97156;-75
2022/07/14 02:03:48;;;;;;;2.20;1.98;;;;;;;19.44;50.37;96505.75;10331458;28;97707;-75
2022/07/14 02:08:52;;;;;;;3.72;1.90;;;;;;;19.51;50.70;96498.63;10333391;28;98029;-75
2022/07/14 02:13:55;;;;;;;5.13;2.00;;;;;;;19.49;50.52;96495.38;10329093;28;96890;-75
2022/07/14 02:18:59;;;;;;;2.75;1.98;;;;;;;19.37;50.49;96491.66;10323333;28;97608;-75
2022/07/14 02:24:04;;;;;;;3.77;1.80;;;;;;;19.24;50.82;96495.88;10338937;28;96910;-75
2022/07/14 02:29:07;;;;;;;3.92;1.70;;;;;;;19.27;50.58;96485.91;10336986;28;97577;-75
2022/07/14 02:34:10;;;;;;;3.08;2.28;;;;;;;19.36;51.35;96474.13;10329330;28;96865;-75
2022/07/14 02:39:15;;;;;;;3.30;2.05;;;;;;;19.27;52.16;96492.00;10320764;28;97062;-75
2022/07/14 02:44:18;;;;;;;2.55;2.03;;;;;;;19.12;53.29;96500.06;10327500;28;98279;-75
2022/07/14 02:49:21;;;;;;;2.83;2.10;;;;;;;19.07;53.44;96502.47;10335090;28;97145;-75
2022/07/14 02:54:25;;;;;;;4.03;2.30;;;;;;;19.08;52.57;96492.72;10327251;28;98302;-75
2022/07/14 02:59:28;;;;;;;4.70;2.17;;;;;;;19.10;52.84;96490.69;10332553;28;97079;-75
2022/07/14 03:04:31;;;;;;;4.00;2.40;;;;;;;18.97;53.42;96497.56;10330380;28;97397;-75
2022/07/14 03:09:35;;;;;;;2.90;2.20;;;;;;;18.78;54.50;96487.63;10334389;28;97942;-75
2022/07/14 03:14:38;;;;;;;;;;;;;;;18.62;53.97;96478.13;10331134;28;96883;-75
2022/07/14 03:19:41;;;;;;;2.92;2.42;;;;;;;18.40;55.79;96480.81;10326363;28;98781;-75
2022/07/14 03:24:45;;;;;;;4.78;2.15;;;;;;;18.34;55.98;96481.56;10338263;28;96998;-75
2022/07/14 03:29:48;;;;;;;3.83;2.42;;;;;;;18.26;55.64;96477.25;10317953;28;97929;-75
2022/07/14 03:34:51;;;;;;;2.40;2.00;;;;;;;18.34;55.20;96472.81;10336640;28;96984;-75
2022/07/14 03:39:55;;;;;;;3.40;2.10;;;;;;;18.38;55.09;96472.25;10333928;28;96879;-75
2022/07/14 03:44:58;;;;;;;3.78;1.95;;;;;;;18.34;55.67;96476.28;10334905;28;97178;-75
2022/07/14 03:50:01;;;;;;;3.15;2.33;;;;;;;18.27;56.04;96476.25;10334514;28;96892;-75
2022/07/14 03:55:06;;;;;;;3.03;2.38;;;;;;;18.19;56.08;96483.50;10334611;28;98619;-75
2022/07/14 04:00:10;;;;;;;2.70;2.33;;;;;;;18.11;56.39;96485.22;10324477;28;96816;-75
2022/07/14 04:05:13;;;;;;;5.78;2.97;;;;;;;17.97;56.93;96485.31;10326968;28;96982;-75
2022/07/14 04:10:18;;;;;;;4.75;2.55;;;;;;;17.85;57.41;96488.44;10318455;28;99693;-75
2022/07/14 04:15:21;;;;;;;6.18;2.83;;;;;;;17.84;57.82;96483.31;10316441;28;99594;-75
2022/07/14 04:20:24;;;;;;;2.85;2.33;;;;;;;17.84;58.25;96480.69;10311490;28;101197;-75
2022/07/14 04:25:29;;;;;;;3.15;2.53;;;;;;;17.73;58.78;96485.44;10323343;28;96840;-75
2022/07/14 04:30:32;;;;;;;2.38;2.10;;;;;;;17.70;58.05;96477.91;10305988;28;96899;-75
2022/07/14 04:35:44;;;;;;;3.33;2.28;;;;;;;17.74;57.51;96475.69;10322009;28;97317;-75
2022/07/14 04:40:49;;;;;;;3.47;2.50;;;;;;;17.81;57.47;96478.41;10314933;28;98466;-75
2022/07/14 04:45:52;;;;;;;3.20;2.28;;;;;;;17.89;57.97;96489.72;10320834;28;96940;-75
2022/07/14 04:56:17;;;;;;;4.03;2.35;;;;;;;18.13;57.45;96482.41;10315743;28;96942;-75
2022/07/14 05:01:19;;;;;;;2.55;2.35;;;;;;;18.25;57.07;96488.00;10308054;28;96923;-75
2022/07/14 05:06:23;;;;;;;2.33;1.88;;;;;;;18.35;57.50;96496.44;10321667;28;97133;-75
2022/07/14 05:11:27;;;;;;;1.80;1.70;;;;;;;18.36;57.54;96506.03;10334379;28;96809;-75
2022/07/14 05:16:31;;;;;;;1.60;1.50;;;;;;;18.40;56.66;96499.34;10321358;28;98714;-75
2022/07/14 05:21:54;;;;;;;5.00;1.90;;;;;;;18.50;56.40;96491.09;10335712;28;96904;-75
2022/07/14 05:26:58;;;;;;;2.70;1.80;;;;;;;18.56;55.73;96489.50;10334820;28;99849;-75
2022/07/14 05:32:02;;;;;;;2.75;1.90;;;;;;;18.74;56.64;96494.28;10334705;28;96843;-75
2022/07/14 05:37:05;;;;;;;3.10;2.00;;;;;;;18.82;55.26;96494.16;10330061;28;96860;-75
2022/07/14 05:42:10;;;;;;;2.53;1.98;;;;;;;18.87;55.13;96483.84;10327469;28;98122;-75
2022/07/14 05:47:13;;;;;;;2.38;1.67;;;;;;;18.98;54.27;96491.22;10325217;28;97585;-75
2022/07/14 05:52:16;;;;;;;3.78;1.92;;;;;;;19.10;54.48;96496.78;10320714;28;97944;-75
2022/07/14 05:57:20;;;;;;;4.60;2.35;;;;;;;19.28;55.61;96503.41;10319631;28;98001;-75
2022/07/14 06:02:23;;;;;;;5.00;2.70;;;;;;;19.42;54.76;96497.19;10323645;28;97602;-75
2022/07/14 06:07:26;;;;;;;4.15;2.80;;;;;;;19.58;54.83;96490.72;10319893;28;99463;-74
2022/07/14 06:12:31;;;;;;;7.30;3.40;;;;;;;19.80;56.09;96483.44;10326785;28;96850;-74
2022/07/14 06:17:34;;;;;;;2.60;2.20;;;;;;;20.01;53.54;96487.81;10298529;28;97029;-74
2022/07/14 06:22:39;;;;;;;4.50;2.50;;;;;;;20.19;51.94;96489.88;10310631;28;97472;-74
2022/07/14 06:27:43;;;;;;;3.88;2.40;;;;;;;20.44;51.56;96483.97;10308393;28;96864;-74
2022/07/14 06:32:46;;;;;;;4.32;2.40;;;;;;;20.73;51.51;96491.50;10313018;28;96969;-74
2022/07/14 06:37:49;;;;;;;3.95;2.50;;;;;;;21.05;50.50;96491.72;10325054;28;96853;-74
2022/07/14 06:42:53;;;;;;;2.83;2.38;;;;;;;21.28;49.44;96485.13;10330912;28;97181;-74
2022/07/14 06:47:56;;;;;;;4.03;2.60;;;;;;;21.48;49.65;96477.91;10326558;28;96992;-74
2022/07/14 06:52:59;;;;;;;4.75;2.60;;;;;;;21.64;48.75;96487.25;10333934;28;96921;-74
2022/07/14 06:58:03;;;;;;;3.22;2.40;;;;;;;21.71;50.15;96489.91;10322812;28;98020;-74
2022/07/14 07:03:10;;;;;;;;;;;;;;;21.84;49.56;96492.47;10327279;28;96866;-74
2022/07/14 07:08:13;;;;;;;3.00;2.40;;;;;;;21.98;49.47;96495.06;10325669;28;96899;-74
2022/07/14 07:13:17;;;;;;;2.73;2.20;;;;;;;22.17;49.27;96502.09;10318598;28;97049;-74
2022/07/14 07:18:20;;;;;;;4.70;2.00;;;;;;;22.51;49.02;96492.09;10320511;28;97393;-74
2022/07/14 07:23:24;;;;;;;2.80;2.10;;;;;;;22.80;48.47;96481.78;10313909;28;97289;-74
2022/07/14 07:28:28;;;;;;;2.37;2.00;;;;;;;22.92;47.93;96480.03;10296600;28;97082;-74
2022/07/14 07:33:32;;;;;;;4.60;2.28;;;;;;;23.08;48.01;96472.50;10295611;28;96901;-75
2022/07/14 07:38:35;;;;;;;3.25;1.88;;;;;;;23.23;47.64;96467.63;10311872;28;97113;-75
2022/07/14 07:43:39;;;;;;;2.85;2.15;;;;;;;23.29;47.55;96466.78;10306123;28;96776;-74
2022/07/14 07:48:43;;;;;;;2.97;1.90;;;;;;;23.45;47.05;96459.22;10300358;28;97019;-74
2022/07/14 07:53:46;;;;;;;4.10;2.30;;;;;;;23.52;47.10;96451.94;10297523;28;96990;-74
2022/07/14 07:58:50;;;;;;;5.72;2.20;;;;;;;23.65;46.58;96449.09;10297116;28;97004;-74
2022/07/14 08:03:53;;;;;;;5.53;2.13;;;;;;;23.86;46.36;96460.31;10315168;28;96792;-74
2022/07/14 08:08:58;;;;;;;3.53;2.05;;;;;;;24.09;45.94;96452.41;10335940;28;96807;-74
2022/07/14 08:14:02;;;;;;;4.20;2.20;;;;;;;24.19;45.79;96453.69;10337613;28;96974;-74
2022/07/14 08:19:05;;;;;;;3.55;2.13;;;;;;;24.26;45.74;96454.41;10344214;28;96864;-74
2022/07/14 08:24:08;;;;;;;3.60;2.45;;;;;;;24.35;45.75;96447.72;10331360;28;96816;-74
2022/07/14 08:29:12;;;;;;;3.67;2.20;;;;;;;24.44;45.86;96440.97;10343001;28;97287;-74
2022/07/14 08:34:15;;;;;;;3.08;2.45;;;;;;;24.63;45.18;96436.34;10336218;28;96936;-75
2022/07/14 08:39:18;;;;;;;2.50;2.28;;;;;;;24.78;45.00;96435.91;10343090;28;96842;-75
2022/07/14 08:44:23;;;;;;;2.30;1.98;;;;;;;24.91;44.56;96440.22;10343660;28;96873;-74
2022/07/14 08:49:26;;;;;;;4.40;2.42;;;;;;;25.05;44.40;96430.09;10330701;28;97063;-74
2022/07/14 08:54:49;;;;;;;3.10;1.80;;;;;;;25.17;43.89;96419.38;10331261;28;96794;-74
2022/07/14 08:59:53;;;;;;;3.15;2.22;;;;;;;25.33;43.77;96431.19;10342195;28;96883;-75
2022/07/14 09:04:56;;;;;;;4.07;2.10;;;;;;;25.54;42.98;96411.84;10330128;28;96761;-74
2022/07/14 09:10:05;;;;;;;4.47;1.67;;;;;;;25.73;42.66;96408.97;10339861;28;96807;-74
2022/07/14 09:20:36;;;;;;;4.07;2.22;;;;;;;25.97;42.00;96394.41;10335828;28;96817;-75
2022/07/14 09:25:39;;;;;;;3.80;2.13;;;;;;;26.14;41.44;96398.97;10339726;28;96729;-74
2022/07/14 09:30:43;;;;;;;1.95;1.75;;;;;;;26.31;41.07;96394.47;10328043;28;96838;-74
2022/07/14 09:35:47;;;;;;;3.03;1.80;;;;;;;26.49;40.46;96390.72;10344976;28;97027;-75
2022/07/14 09:40:51;;;;;;;;;;;;;;;26.58;40.75;96379.59;10341810;28;98430;-75
2022/07/14 09:45:56;;;;;;;3.30;2.00;;;;;;;26.75;40.52;96378.50;10341004;28;97227;-75
2022/07/14 09:51:00;;;;;;;1.92;1.70;;;;;;;26.96;39.41;96380.66;10336758;28;97145;-75
2022/07/14 09:56:05;;;;;;;4.05;1.70;;;;;;;27.03;38.38;96384.78;10339957;28;97026;-75
2022/07/14 10:01:11;;;;;;;2.08;1.63;;;;;;;27.11;38.38;96375.50;10340621;28;97147;-75
2022/07/14 10:06:16;;;;;;;3.92;2.05;;;;;;;27.33;38.54;96367.44;10329852;28;96880;-75
2022/07/14 10:11:39;;;;;;;2.38;1.60;;;;;;;27.58;36.43;96368.75;10309086;28;97422;-75
2022/07/14 10:16:45;;;;;;;2.40;1.65;;;;;;;27.78;36.29;96371.69;10319273;28;97333;-75
2022/07/14 10:21:49;;;;;;;2.63;1.90;;;;;;;27.96;35.83;96367.00;10320610;28;97343;-75
2022/07/14 10:26:53;;;;;;;6.15;1.67;;;;;;;28.05;35.52;96352.06;10311350;28;96735;-74
2022/07/14 10:32:21;;;;;;;2.90;1.40;;;;;;;28.21;33.99;96351.09;10298344;28;96852;-75
2022/07/14 10:37:31;;;;;;;3.22;1.48;;;;;;;28.35;33.84;96345.31;10307615;28;97066;-75
2022/07/14 10:42:44;;;;;;;2.05;1.58;;;;;;;28.57;32.70;96339.81;10308115;28;97009;-75
2022/07/14 10:47:50;;;;;;;2.20;1.48;;;;;;;28.88;32.71;96348.84;10303873;28;97271;-75
2022/07/14 10:53:04;;;;;;;2.03;1.20;;;;;;;28.98;31.48;96338.16;10317554;28;96673;-75
2022/07/14 10:58:27;;;;;;;3.95;1.70;;;;;;;29.11;31.72;96330.69;10317753;28;98941;-75
2022/07/14 11:03:48;;;;;;;4.13;1.50;;;;;;;29.23;31.62;96323.19;10308350;28;98032;-75
2022/07/14 11:09:31;;;;;;;1.50;1.40;;;;;;;29.43;31.15;96325.09;10326677;28;97099;-75
2022/07/14 11:14:39;;;;;;;2.75;1.40;;;;;;;29.63;30.77;96321.69;10322515;28;96716;-76
2022/07/14 11:19:52;;;;;;;1.27;1.17;;;;;;;29.68;30.82;96321.69;10337972;28;96886;-75
2022/07/14 11:24:57;;;;;;;1.97;1.50;;;;;;;29.74;30.63;96312.53;10337853;28;96727;-75
2022/07/14 11:30:18;;;;;;;2.65;1.40;;;;;;;29.92;30.94;96313.06;10336720;28;96953;-75
2022/07/14 11:40:59;;;;;;;1.50;1.38;;;;;;;30.02;29.82;96301.50;10324705;28;96978;-75
2022/07/14 11:46:04;;;;;;;3.10;1.90;;;;;;;30.10;30.38;96288.28;10336346;28;96762;-75
2022/07/14 11:51:10;;;;;;;1.63;1.20;;;;;;;30.32;29.30;96284.50;10320667;28;97120;-75
2022/07/14 11:56:13;;;;;;;1.85;1.38;;;;;;;30.65;28.31;96282.25;10311715;28;97408;-75
2022/07/14 12:01:16;;;;;;;1.67;1.40;;;;;;;30.71;28.10;96273.06;10329405;28;96752;-75
2022/07/14 12:06:21;;;;;;;2.95;1.63;;;;;;;30.73;28.41;96278.97;10327481;28;97018;-75
2022/07/14 12:11:24;;;;;;;2.42;1.50;;;;;;;30.80;28.57;96268.72;10336459;28;96832;-75
2022/07/14 12:16:29;;;;;;;3.17;1.83;;;;;;;30.96;28.54;96255.97;10336013;28;96955;-75
2022/07/14 12:21:34;;;;;;;1.98;1.50;;;;;;;31.12;28.20;96255.91;10336346;28;96954;-75
2022/07/14 12:26:38;;;;;;;2.45;1.33;;;;;;;31.30;28.07;96254.44;10335367;28;96688;-75
2022/07/14 12:31:51;;;;;;;2.23;1.50;;;;;;;31.47;27.87;96240.56;10333604;28;96812;-75
2022/07/14 12:36:58;;;;;;;1.98;1.40;;;;;;;31.58;27.85;96237.53;10330207;28;96861;-75
2022/07/14 12:42:04;;;;;;;2.00;1.60;;;;;;;31.72;28.44;96232.28;10324897;28;96990;-75
2022/07/14 12:47:09;;;;;;;1.70;1.60;;;;;;;32.07;27.84;96229.56;10335119;28;97028;-75
2022/07/14 12:52:14;;;;;;;2.70;1.70;;;;;;;32.19;27.88;96224.56;10335294;28;96791;-75
2022/07/14 12:57:21;;;;;;;3.05;1.30;;;;;;;32.19;27.76;96219.16;10334941;28;96811;-76
2022/07/14 13:02:25;;;;;;;2.17;1.50;;;;;;;32.30;28.13;96222.56;10333898;28;96901;-75
2022/07/14 13:07:32;;;;;;;1.98;1.50;;;;;;;32.38;27.91;96213.03;10336149;28;97785;-75
2022/07/14 13:12:36;;;;;;;3.92;1.60;;;;;;;32.57;27.98;96200.38;10306365;28;96966;-75
2022/07/14 13:17:49;;;;;;;2.95;1.42;;;;;;;32.72;27.69;96196.69;10299963;28;97116;-75
2022/07/14 13:22:58;;;;;;;2.38;1.30;;;;;;;33.12;27.00;96188.28;10311648;28;97127;-75
2022/07/14 13:28:01;;;;;;;1.77;1.40;;;;;;;33.24;27.23;96185.97;10303149;28;97035;-76
2022/07/14 13:33:04;;;;;;;2.42;1.50;;;;;;;33.38;27.47;96180.59;10307426;28;97120;-75
2022/07/14 13:38:08;;;;;;;2.13;1.40;;;;;;;33.40;27.11;96168.34;10307673;28;96943;-75
2022/07/14 13:43:11;;;;;;;1.40;1.30;;;;;;;33.50;26.08;96171.97;10301921;28;96799;-75
2022/07/14 13:48:14;;;;;;;1.35;1.20;;;;;;;33.59;25.78;96170.22;10299456;28;96814;-75
2022/07/14 13:53:18;;;;;;;4.78;0.95;;;;;;;33.69;24.67;96180.91;10306366;28;96809;-75
2022/07/14 13:58:21;;;;;;;2.70;0.95;;;;;;;33.70;22.90;96181.72;10300171;28;98426;-75
2022/07/14 14:03:26;;;;;;;2.38;1.00;;;;;;;33.63;21.70;96176.69;10315933;28;99351;-75
2022/07/14 14:08:31;;;;;;;1.10;0.85;;;;;;;33.64;21.72;96162.84;10315004;28;97135;-75
2022/07/14 14:13:35;;;;;;;1.42;0.70;;;;;;;33.75;21.32;96159.94;10318254;28;97554;-75
2022/07/14 14:18:38;;;;;;;1.95;0.90;;;;;;;34.78;20.02;96166.88;10315275;28;97520;-75
2022/07/14 14:23:42;;;;;;;1.05;0.73;;;;;;;36.26;18.31;96170.63;10335817;28;97008;-75
2022/07/14 14:28:45;;;;;;;0.90;0.52;;;;;;;38.01;17.23;96162.47;10338083;28;98959;-76
2022/07/14 14:33:48;;;;;;;0.98;0.80;;;;;;;39.01;16.03;96167.56;10339253;28;97316;-76
2022/07/14 14:38:52;;;;;;;1.42;0.60;;;;;;;40.95;15.07;96160.41;10333554;28;100408;-76
2022/07/14 14:44:02;;;;;;;;;;;;;;;42.75;15.55;96157.63;10345446;28;96945;-76
2022/07/14 14:49:05;;;;;;;0.60;0.50;;;;;;;43.54;13.16;96163.97;10335907;28;96867;-76
2022/07/14 14:54:09;;;;;;;0.80;0.50;;;;;;;43.36;13.33;96160.84;10338599;28;97116;-76
2022/07/14 14:59:12;;;;;;;0.82;0.60;;;;;;;43.64;12.95;96146.88;10338066;28;96750;-77
2022/07/14 15:04:15;;;;;;;2.55;0.60;;;;;;;44.75;12.54;96153.41;10330564;28;96913;-76
2022/07/14 15:09:19;;;;;;;1.70;0.95;;;;;;;45.65;11.46;96148.97;10337415;28;96913;-77
2022/07/14 15:14:22;;;;;;;2.10;0.90;;;;;;;46.29;11.73;96145.22;10318968;28;97930;-74
2022/07/14 15:19:26;;;;;;;0.65;0.47;;;;;;;45.80;11.68;96143.59;10329405;28;98094;-74
2022/07/14 15:24:30;;;;;;;1.45;0.60;;;;;;;46.18;11.38;96125.03;10322054;28;97362;-74
2022/07/14 15:29:33;;;;;;;1.13;0.63;;;;;;;46.54;10.97;96122.50;10336752;28;96971;-74
2022/07/14 15:34:36;;;;;;;1.05;0.68;;;;;;;45.90;11.10;96123.59;10341484;28;97221;-74
2022/07/14 15:45:10;;;;;;;1.55;0.70;;;;;;;46.02;10.88;96123.31;10290663;28;97091;-74
2022/07/14 15:50:13;;;;;;;0.50;0.50;;;;;;;46.07;10.69;96114.69;10284810;28;97095;-74
2022/07/14 15:55:17;;;;;;;1.45;0.63;;;;;;;46.41;10.84;96111.78;10287678;28;97264;-74
2022/07/14 16:00:20;;;;;;;2.83;0.60;;;;;;;45.32;11.73;96103.72;10268209;28;98778;-74
2022/07/14 16:05:23;;;;;;;1.60;0.50;;;;;;;44.65;11.49;96112.72;10263466;28;98696;-74
2022/07/14 16:10:27;;;;;;;1.98;0.63;;;;;;;44.45;11.94;96101.00;10258473;28;99329;-74
2022/07/14 16:15:31;;;;;;;1.50;0.60;;;;;;;44.87;11.34;96108.28;10261477;28;97152;-74
2022/07/14 16:20:34;;;;;;;1.25;0.60;;;;;;;44.47;11.52;96103.41;10301432;28;99279;-74
2022/07/14 16:25:39;;;;;;;3.42;0.73;;;;;;;45.31;11.77;96096.59;10307469;28;98401;-74
2022/07/14 16:30:41;;;;;;;0.88;0.60;;;;;;;45.05;12.14;96091.97;10307969;28;98358;-74
2022/07/14 16:35:44;;;;;;;1.23;0.60;;;;;;;45.33;11.83;96091.50;10310375;28;97751;-74
2022/07/14 16:40:49;;;;;;;1.95;0.85;;;;;;;44.66;13.16;96091.44;10312019;28;97003;-74
2022/07/14 16:45:52;;;;;;;1.10;0.60;;;;;;;44.54;13.59;96093.28;10318903;28;97290;-74
2022/07/14 16:50:54;;;;;;;1.92;0.70;;;;;;;44.53;13.07;96077.13;10314661;28;97124;-74
2022/07/14 16:55:59;;;;;;;2.20;0.90;;;;;;;44.14;14.08;96091.09;10332986;28;97989;-74
2022/07/14 17:01:03;;;;;;;5.80;0.90;;;;;;;43.93;13.58;96080.56;10320317;28;97189;-74
2022/07/14 17:06:23;;;;;;;1.38;0.82;;;;;;;42.87;14.29;96089.97;10315598;28;97343;-74
2022/07/14 17:11:28;;;;;;;1.55;0.73;;;;;;;42.25;13.72;96087.84;10316221;28;96978;-74
2022/07/14 17:16:31;;;;;;;1.95;0.75;;;;;;;43.32;13.37;96097.53;10316109;28;98424;-74
2022/07/14 17:21:54;;;;;;;1.73;0.60;;;;;;;43.23;13.87;96094.22;10314636;28;96821;-74
2022/07/14 17:26:59;;;;;;;2.88;0.73;;;;;;;43.07;14.32;96094.31;10308188;28;99723;-74
2022/07/14 17:32:01;;;;;;;1.20;0.68;;;;;;;44.03;14.20;96107.44;10311053;28;97728;-74
2022/07/14 17:37:04;;;;;;;2.15;0.80;;;;;;;44.44;14.22;96110.47;10319383;28;96923;-74
2022/07/14 17:42:09;;;;;;;1.92;0.82;;;;;;;44.83;14.19;96114.94;10313514;28;96909;-74
2022/07/14 17:47:12;;;;;;;0.82;0.80;;;;;;;44.98;14.28;96122.22;10317817;28;98977;-74
2022/07/14 17:52:15;;;;;;;1.55;0.95;;;;;;;44.72;14.26;96112.78;10327093;28;99010;-74
2022/07/14 17:57:24;;;;;;;1.15;0.80;;;;;;;44.57;14.25;96113.78;10317179;28;98679;-74
2022/07/14 18:02:27;;;;;;;0.93;0.70;;;;;;;44.87;14.22;96118.50;10313347;28;98177;-74
2022/07/14 18:07:30;;;;;;;2.20;0.80;;;;;;;44.68;14.08;96119.41;10315488;28;96881;-74
2022/07/14 18:12:35;;;;;;;1.35;0.98;;;;;;;43.55;15.03;96109.75;10327092;28;97088;-75
2022/07/14 18:17:38;;;;;;;1.05;0.77;;;;;;;40.94;17.38;96114.19;10322733;28;98212;-73
2022/07/14 18:22:42;;;;;;;0.85;0.80;;;;;;;38.68;18.72;96113.69;10329086;28;97386;-73
2022/07/14 18:27:47;;;;;;;1.40;1.00;;;;;;;37.12;19.83;96113.91;10321924;28;97416;-73
2022/07/14 18:32:51;;;;;;;2.17;1.05;;;;;;;35.75;21.57;96116.81;10317933;28;98131;-73
2022/07/14 18:37:54;;;;;;;1.75;1.05;;;;;;;34.92;22.19;96124.25;10321332;28;98683;-73
2022/07/14 18:42:58;;;;;;;1.60;1.02;;;;;;;34.15;23.21;96125.06;10326813;28;98410;-73
2022/07/14 18:48:01;;;;;;;2.10;1.10;;;;;;;33.62;23.65;96119.00;10316151;28;98050;-73
2022/07/14 18:53:05;;;;;;;1.38;1.27;;;;;;;33.19;24.27;96123.78;10321529;28;97010;-72
2022/07/14 18:58:10;;;;;;;2.28;1.27;;;;;;;32.95;24.82;96121.94;10318217;28;98287;-73
2022/07/14 19:03:21;;;;;;;2.13;1.03;;;;;;;32.56;25.39;96127.66;10314563;28;96980;-73
2022/07/14 19:08:24;;;;;;;1.08;1.00;;;;;;;31.73;26.59;96135.88;10318019;28;98944;-75
2022/07/14 19:13:28;;;;;;;3.75;1.00;;;;;;;31.40;27.39;96141.06;10309459;28;97824;-75
2022/07/14 19:18:31;;;;;;;1.40;1.27;;;;;;;31.40;27.36;96143.75;10300223;28;98819;-75
2022/07/14 19:23:34;;;;;;;2.72;1.25;;;;;;;31.05;28.48;96137.53;10302041;28;96880;-75
2022/07/14 19:28:38;;;;;;;;;;;;;;;30.42;28.33;96149.72;10300124;28;96996;-76
2022/07/14 19:33:41;;;;;;;3.05;1.27;;;;;;;30.16;29.51;96156.28;10296887;28;97265;-75
2022/07/14 19:38:44;;;;;;;1.67;1.25;;;;;;;29.91;30.15;96158.75;10298640;28;97102;-75
2022/07/14 19:43:49;;;;;;;1.85;1.42;;;;;;;29.85;30.58;96156.34;10305186;28;96822;-75
2022/07/14 19:48:52;;;;;;;1.50;1.40;;;;;;;29.82;30.68;96165.78;10297775;28;97446;-75
2022/07/14 19:53:55;;;;;;;1.20;1.10;;;;;;;29.70;30.66;96174.16;10298172;28;96845;-76
2022/07/14 19:59:00;;;;;;;3.70;1.38;;;;;;;29.50;31.00;96177.63;10317234;28;98497;-75
2022/07/14 20:04:05;;;;;;;5.40;1.40;;;;;;;29.33;31.15;96177.09;10322331;28;97498;-75
2022/07/14 20:09:08;;;;;;;2.33;1.50;;;;;;;29.28;31.51;96180.59;10329036;28;97221;-75
2022/07/14 20:14:13;;;;;;;2.67;1.17;;;;;;;29.02;31.73;96187.03;10335919;28;96948;-75
2022/07/14 20:19:21;;;;;;;1.73;1.20;;;;;;;28.82;32.26;96187.78;10309161;28;97500;-75
2022/07/14 20:24:25;;;;;;;1.38;1.20;;;;;;;28.46;32.93;96196.50;10322827;28;98297;-75
2022/07/14 20:34:49;;;;;;;1.77;1.13;;;;;;;27.81;34.45;96196.69;10318992;28;97102;-75
2022/07/14 20:39:55;;;;;;;1.75;1.27;;;;;;;27.53;34.16;96199.69;10301620;28;98468;-76
2022/07/14 20:44:59;;;;;;;3.67;1.10;;;;;;;27.45;33.95;96206.31;10313085;28;98542;-74
2022/07/14 20:50:02;;;;;;;2.97;1.25;;;;;;;27.04;35.92;96208.63;10307630;28;98534;-76
2022/07/14 20:55:07;;;;;;;1.45;1.20;;;;;;;26.49;36.05;96197.84;10304970;28;98310;-75
2022/07/14 21:00:12;;;;;;;2.65;1.30;;;;;;;26.25;36.54;96191.94;10305550;28;99332;-75
2022/07/14 21:05:15;;;;;;;3.70;1.35;;;;;;;25.98;37.55;96203.34;10307862;28;98807;-76
2022/07/14 21:10:18;;;;;;;4.90;1.50;;;;;;;25.49;38.32;96205.75;10318499;28;96993;-75
2022/07/14 21:15:22;;;;;;;2.03;1.30;;;;;;;25.22;38.32;96203.72;10324395;28;97428;-75
2022/07/14 21:20:25;;;;;;;2.67;1.30;;;;;;;25.24;37.45;96190.13;10318141;28;98577;-75
2022/07/14 21:25:28;;;;;;;2.23;1.27;;;;;;;25.23;37.26;96202.69;10321011;28;97153;-75
2022/07/14 21:30:33;;;;;;;2.22;1.30;;;;;;;25.19;37.27;96198.06;10305105;28;99024;-75
2022/07/14 21:35:36;;;;;;;1.40;1.00;;;;;;;25.18;37.14;96199.94;10305428;28;97081;-76
2022/07/14 21:40:39;;;;;;;2.90;1.23;;;;;;;25.08;36.90;96194.41;10311717;28;96817;-75
2022/07/14 21:45:43;;;;;;;2.43;1.00;;;;;;;25.03;36.70;96197.00;10315049;28;97173;-75
2022/07/14 21:50:49;;;;;;;1.30;1.02;;;;;;;25.03;36.85;96187.09;10311665;28;97927;-75
2022/07/14 21:55:52;;;;;;;1.73;0.98;;;;;;;25.57;34.87;96183.19;10304410;28;98713;-76
2022/07/14 22:00:57;;;;;;;1.05;0.93;;;;;;;25.58;32.86;96188.31;10301734;28;97066;-75
2022/07/14 22:06:00;;;;;;;1.77;0.70;;;;;;;25.75;32.93;96185.59;10306607;28;96829;-75
2022/07/14 22:11:03;;;;;;;0.98;0.80;;;;;;;25.80;32.94;96195.56;10302803;28;100898;-75
2022/07/14 22:16:08;;;;;;;2.70;1.10;;;;;;;25.72;33.58;96190.63;10305047;28;96841;-75
2022/07/14 22:21:11;;;;;;;3.30;1.00;;;;;;;25.68;33.36;96190.31;10318779;28;96898;-75
2022/07/14 22:26:15;;;;;;;2.92;1.10;;;;;;;25.69;33.82;96194.63;10312987;28;96851;-76
2022/07/14 22:31:19;;;;;;;2.07;1.00;;;;;;;25.83;33.60;96189.72;10306692;28;97038;-76
2022/07/14 22:36:22;;;;;;;2.25;1.15;;;;;;;25.69;34.08;96199.16;10317776;28;98002;-75
2022/07/14 22:41:25;;;;;;;2.65;1.08;;;;;;;25.53;34.67;96190.03;10304527;28;97397;-76
2022/07/14 22:46:29;;;;;;;4.57;1.33;;;;;;;25.39;34.46;96181.53;10311356;28;97015;-75
2022/07/14 22:51:32;;;;;;;1.67;1.20;;;;;;;25.20;35.14;96173.75;10304874;28;99986;-75
2022/07/14 22:56:36;;;;;;;2.40;0.98;;;;;;;25.02;35.14;96187.34;10310519;28;97649;-76
2022/07/14 23:01:41;;;;;;;2.13;1.30;;;;;;;24.84;35.47;96183.81;10314833;28;97754;-75
2022/07/14 23:06:44;;;;;;;2.45;1.40;;;;;;;24.66;36.32;96181.31;10312841;28;97912;-75
2022/07/14 23:17:09;;;;;;;1.55;1.20;;;;;;;24.10;37.53;96179.13;10316395;28;100184;-75
2022/07/14 23:22:12;;;;;;;4.72;1.45;;;;;;;24.06;38.10;96185.22;10320025;28;96927;-75
2022/07/14 23:27:14;;;;;;;4.13;1.30;;;;;;;23.82;38.34;96187.03;10320683;28;96838;-76
2022/07/14 23:32:19;;;;;;;2.67;1.20;;;;;;;23.62;38.37;96177.56;10304637;28;97997;-75
2022/07/14 23:37:22;;;;;;;1.83;1.30;;;;;;;23.45;39.21;96187.28;10307935;28;98610;-75
2022/07/14 23:42:25;;;;;;;2.78;1.27;;;;;;;23.42;39.25;96182.41;10314418;28;97316;-75
2022/07/14 23:47:29;;;;;;;2.63;1.40;;;;;;;23.29;40.03;96186.91;10299627;28;96874;-75
2022/07/14 23:52:32;;;;;;;1.75;1.30;;;;;;;23.16;40.62;96182.56;10316455;28;96803;-75
2022/07/14 23:57:35;;;;;;;2.92;1.30;;;;;;;22.91;41.08;96180.06;10323478;28;99534;-75
